Vossem Meer informatie Vossem


Tervuren markt Meer informatie Tervuren markt


Tervuren park Meer informatie Tervuren park


Bezoek onze andere website:

Meteotemplate

Home Weather Station

Saratoga


Lokaal brand risico:
CBI


Regionaal brand risico: Meer informatie



METAR rapporten vliegvelden

   
EBBR - Brussels
Gewijzigd: Jun 6 2020 6:20 pm
Helder  
Helder  
   Wind: WZW 42.6 km/h<br />Gust to 42.6 km/h
Wind: WZW 42.6 km/h
Gust to 42.6 km/h
Temperatuur: 15°C
Dauwpunt: 0°C
Vochtigheid: 36%
Barometer: 1001 mb
Zicht: meer dan 10 km
Bewolking: Helder
EBBR 061620Z 25023G34KT CAVOK 15/00 Q1001 NOSIG
EBAW - Antwerp
Gewijzigd: Jun 6 2020 6:20 pm
Helder  
Helder  
   Wind: ZW 27.8 km/h
Wind: ZW 27.8 km/h
Temperatuur: 15°C
Dauwpunt: 2°C
Vochtigheid: 42%
Barometer: 1001 mb
Zicht: meer dan 10 km
Bewolking: Helder
EBAW 061620Z 22015KT CAVOK 15/02 Q1001 TEMPO 23015G25KT
EHBK - Maastricht
Gewijzigd: Jun 6 2020 6:25 pm
Gedeeltelijk bewolkt  
Gedeeltelijk bewolkt  
   Wind: WZW 25.9 km/h<br />Gust to 25.9 km/h
Wind: WZW 25.9 km/h
Gust to 25.9 km/h
Temperatuur: 15°C
Dauwpunt: 3°C
Vochtigheid: 45%
Barometer: 1001 mb
Bewolking: Gedeeltelijk bewolkt
Zicht: meer dan 10 km
Bewolking: Gedeeltelijk bewolkt
EHBK 061625Z AUTO 24014G24KT 210V270 9999 NSC 15/03 Q1001 NOSIG
EDLV - Nijmegen
Gewijzigd: Jun 5 2020 6:20 pm
Verouderd
Gedeeltelijk bewolkt  
Gedeeltelijk bewolkt  
   Wind: Westen 24.1 km/h
Wind: Westen 24.1 km/h
Temperatuur: 12°C
Dauwpunt: 8°C
Vochtigheid: 77%
Barometer: 993 mb
Bewolking: Gedeeltelijk bewolkt
Zicht: meer dan 10 km
Bewolking: Gedeeltelijk bewolkt 609.6 m
EDLV 051620Z 28013KT 9999 SCT020 12/08 Q0993
EHRD - Rotterdam
Gewijzigd: Jun 6 2020 6:25 pm
Wat regen mogelijk, Grotendeels bewolkt  
Wat regen mogelijk, Grotendeels bewolkt  
   Wind: ZW 25.9 km/h
Wind: ZW 25.9 km/h
Temperatuur: 11°C
Dauwpunt: 9°C
Vochtigheid: 88%
Barometer: 999 mb
Bewolking: Grotendeels bewolkt
Zicht: meer dan 10 km
Bewolking: Licht bewolkt 518.2 m,
Grotendeels bewolkt 1310.6 m,
Grotendeels bewolkt 1493.5 m
EHRD 061625Z AUTO 23014KT 160V280 9999 -RA FEW017 BKN043 BKN049 11/09 Q0999 NOSIG
 

Script ontwikkeld door  Saratoga-weather.org Aangepast voor de template door  Weerstation Leuven

U vindt ons ook hier:

Het Weer Aktueel

UK Metoffice

European Weather Network

WeatherCloud

Weather Underground

Benelux Weer Netwerk

AWEKAS

Citizen Weather Observer Program (CWOP)

HAMweather, WeatherForYou, PWS Weather

Apparatuur in gebruik:

Weerstation
Davis VP2

Weerprogramma
Meteobridge

Weercomputer
TP-Link MR3020

Davis VP2

Meteobridge

TP-Link MR3020